Time;durP1;ratioP1;P1;durP2;ratioP2;P2;SDS_P1;SDS_P2;PMS_P1;PMS_P2;Temp;Humidity;BMP_temperature;BMP_pressure;BME280_temperature;BME280_humidity;BME280_pressure;Samples;Min_cycle;Max_cycle;Signal;HPM_P1;HPM_P2
2021/04/17 00:00:16;;;;;;;13.13;6.20;;;4.20;86.70;;;;;;5022745;28;20053;-73
2021/04/17 00:02:42;;;;;;;10.40;4.93;;;4.20;87.00;;;;;;5014554;28;20140;-73
2021/04/17 00:05:08;;;;;;;8.33;4.97;;;4.10;87.60;;;;;;5022756;28;20121;-73
2021/04/17 00:07:35;;;;;;;10.43;5.03;;;4.10;87.70;;;;;;5037559;28;20693;-73
2021/04/17 00:10:01;;;;;;;9.83;4.80;;;4.10;87.80;;;;;;5017243;28;20037;-72
2021/04/17 00:12:30;;;;;;;11.33;5.57;;;4.10;87.60;;;;;;4991518;28;20099;-73
2021/04/17 00:14:57;;;;;;;8.90;5.27;;;4.00;87.60;;;;;;5018860;28;20049;-72
2021/04/17 00:17:24;;;;;;;11.03;6.03;;;4.00;88.20;;;;;;5038275;28;20038;-73
2021/04/17 00:19:54;;;;;;;11.07;4.87;;;4.00;88.00;;;;;;5035071;28;20551;-73
2021/04/17 00:22:20;;;;;;;12.00;5.65;;;4.00;88.60;;;;;;5018510;28;20068;-72
2021/04/17 00:24:45;;;;;;;16.40;6.17;;;3.90;88.50;;;;;;5037451;28;20069;-72
2021/04/17 00:27:11;;;;;;;14.93;5.80;;;4.00;88.60;;;;;;5037747;28;20072;-72
2021/04/17 00:29:37;;;;;;;11.77;6.23;;;4.00;89.80;;;;;;5017138;28;20572;-73
2021/04/17 00:32:05;;;;;;;15.90;6.57;;;3.90;90.00;;;;;;5034583;28;20542;-73
2021/04/17 00:34:31;;;;;;;15.60;7.07;;;3.90;90.30;;;;;;5019371;28;20033;-72
2021/04/17 00:37:00;;;;;;;12.40;6.20;;;3.90;90.60;;;;;;5034391;28;20492;-72
2021/04/17 00:39:25;;;;;;;13.13;5.70;;;3.90;90.60;;;;;;5024438;28;20392;-73
2021/04/17 00:41:52;;;;;;;15.80;6.03;;;3.80;90.60;;;;;;5026350;28;20032;-72
2021/04/17 00:44:18;;;;;;;13.23;6.10;;;3.80;90.50;;;;;;5011948;28;20049;-72
2021/04/17 00:46:44;;;;;;;14.10;6.57;;;3.90;90.30;;;;;;4992469;28;20416;-72
2021/04/17 00:49:12;;;;;;;10.27;5.67;;;3.80;90.50;;;;;;5025717;28;20073;-72
2021/04/17 00:51:38;;;;;;;9.87;5.60;;;3.80;90.70;;;;;;5031728;28;20041;-72
2021/04/17 00:54:08;;;;;;;11.23;5.10;;;3.70;90.60;;;;;;5018889;28;20224;-72
2021/04/17 00:56:35;;;;;;;8.80;5.07;;;3.70;90.60;;;;;;5008392;28;20097;-73
2021/04/17 00:59:02;;;;;;;13.13;6.40;;;3.70;90.70;;;;;;5020715;28;20068;-73
2021/04/17 01:01:29;;;;;;;11.40;6.10;;;3.60;91.00;;;;;;5023939;28;20038;-72
2021/04/17 01:04:02;;;;;;;11.43;6.77;;;3.60;90.80;;;;;;5025847;28;20038;-71
2021/04/17 01:06:34;;;;;;;13.13;6.20;;;3.60;90.80;;;;;;5001242;28;20053;-71
2021/04/17 01:09:11;;;;;;;12.30;6.50;;;3.60;90.90;;;;;;5029701;28;20041;-73
2021/04/17 01:11:47;;;;;;;14.17;6.17;;;3.60;90.90;;;;;;5017250;28;20408;-72
2021/04/17 01:14:18;;;;;;;16.77;7.97;;;3.60;90.90;;;;;;5004655;28;20038;-73
2021/04/17 01:16:45;;;;;;;12.30;6.70;;;3.50;91.00;;;;;;5017403;28;20056;-72
2021/04/17 01:19:17;;;;;;;11.10;6.50;;;3.50;91.00;;;;;;5016054;28;20214;-72
2021/04/17 01:21:44;;;;;;;11.53;6.53;;;3.50;91.10;;;;;;5036288;28;20409;-72
2021/04/17 01:24:17;;;;;;;14.43;7.53;;;3.40;91.20;;;;;;5025288;28;20135;-72
2021/04/17 01:26:43;;;;;;;19.27;8.07;;;3.40;91.60;;;;;;5018371;28;20033;-72
2021/04/17 01:29:11;;;;;;;12.73;7.40;;;3.40;91.50;;;;;;5026460;28;20041;-72
2021/04/17 01:31:47;;;;;;;15.20;7.30;;;3.40;91.50;;;;;;5009963;28;20033;-72
2021/04/17 01:34:13;;;;;;;15.90;6.30;;;3.40;91.50;;;;;;5025086;28;20037;-72
2021/04/17 01:36:39;;;;;;;18.83;8.73;;;3.40;91.60;;;;;;5014908;28;20041;-72
2021/04/17 01:39:11;;;;;;;15.98;8.07;;;3.40;91.60;;;;;;5035322;28;20065;-71
2021/04/17 01:41:45;;;;;;;17.00;8.87;;;3.40;91.80;;;;;;5012620;28;20038;-72
2021/04/17 01:44:20;;;;;;;15.43;7.13;;;3.40;91.80;;;;;;5021558;28;20048;-71
2021/04/17 01:46:49;;;;;;;19.57;9.77;;;3.40;92.10;;;;;;5016214;28;20393;-71
2021/04/17 01:49:17;;;;;;;19.40;8.83;;;3.40;92.50;;;;;;5005544;28;20071;-72
2021/04/17 01:51:46;;;;;;;15.73;9.20;;;3.50;92.50;;;;;;5023514;28;20092;-71
2021/04/17 01:54:20;;;;;;;16.10;9.53;;;3.50;92.70;;;;;;5018787;28;20120;-72
2021/04/17 01:56:48;;;;;;;16.10;8.90;;;3.50;92.80;;;;;;5000907;28;20042;-72
2021/04/17 01:59:20;;;;;;;19.00;10.37;;;3.50;92.80;;;;;;5019221;28;20041;-71
2021/04/17 02:01:47;;;;;;;17.47;9.80;;;3.60;92.80;;;;;;5022241;28;20041;-72
2021/04/17 02:04:13;;;;;;;18.63;10.20;;;3.50;93.00;;;;;;5014697;28;20047;-71
2021/04/17 02:06:39;;;;;;;18.50;10.30;;;3.50;93.30;;;;;;5036291;28;20481;-71
2021/04/17 02:09:05;;;;;;;17.83;9.80;;;3.50;93.20;;;;;;5035811;28;20260;-72
2021/04/17 02:11:32;;;;;;;17.60;9.03;;;3.40;93.20;;;;;;5035741;28;20030;-71
2021/04/17 02:14:02;;;;;;;17.33;9.87;;;3.40;93.30;;;;;;5014354;28;20512;-71
2021/04/17 02:16:35;;;;;;;17.40;9.85;;;3.40;93.30;;;;;;5020410;28;20033;-71
2021/04/17 02:19:09;;;;;;;15.47;8.87;;;3.40;93.50;;;;;;5021299;28;20041;-71
2021/04/17 02:21:42;;;;;;;20.40;10.27;;;3.40;93.40;;;;;;5014239;28;20046;-71
2021/04/17 02:24:08;;;;;;;14.10;8.07;;;3.40;93.30;;;;;;5002983;28;21096;-71
2021/04/17 02:26:36;;;;;;;15.20;8.40;;;3.30;93.30;;;;;;5021581;28;20116;-71
2021/04/17 02:29:03;;;;;;;13.07;7.03;;;3.30;93.20;;;;;;5032892;28;20065;-71
2021/04/17 02:31:30;;;;;;;15.67;7.60;;;3.10;93.10;;;;;;5007066;28;20132;-71
2021/04/17 02:33:57;;;;;;;13.03;6.90;;;3.10;93.00;;;;;;5022208;28;20034;-71
2021/04/17 02:36:23;;;;;;;16.57;6.37;;;3.00;92.90;;;;;;5008403;28;20556;-71
2021/04/17 02:38:49;;;;;;;13.23;7.67;;;3.10;92.90;;;;;;5033094;28;20041;-71
2021/04/17 02:41:31;;;;;;;13.17;6.30;;;3.00;92.90;;;;;;4983709;28;20054;-72
2021/04/17 02:43:57;;;;;;;15.33;7.00;;;3.00;92.90;;;;;;4985068;28;20050;-71
2021/04/17 02:46:23;;;;;;;12.80;8.47;;;3.00;92.80;;;;;;4984663;28;20521;-71
2021/04/17 02:48:52;;;;;;;15.40;8.90;;;2.90;92.80;;;;;;4986013;28;21252;-72
2021/04/17 02:51:18;;;;;;;12.50;7.17;;;2.90;92.90;;;;;;4960642;28;20054;-72
2021/04/17 02:53:48;;;;;;;19.40;8.83;;;2.80;92.80;;;;;;4988059;28;20057;-72
2021/04/17 02:56:14;;;;;;;14.77;6.75;;;2.80;92.80;;;;;;4991782;28;20046;-72
2021/04/17 02:58:40;;;;;;;12.67;7.23;;;2.80;92.90;;;;;;4970474;28;20046;-72
2021/04/17 03:01:09;;;;;;;11.70;6.77;;;2.70;92.80;;;;;;4983364;28;20069;-72
2021/04/17 03:03:35;;;;;;;16.70;7.20;;;2.70;92.90;;;;;;4996768;28;20061;-73
2021/04/17 03:06:01;;;;;;;11.20;6.87;;;2.80;92.80;;;;;;4980909;28;20058;-72
2021/04/17 03:08:27;;;;;;;14.93;8.30;;;2.80;92.80;;;;;;4980291;28;20139;-73
2021/04/17 03:10:53;;;;;;;16.70;8.57;;;2.70;92.70;;;;;;4967658;28;20162;-73
2021/04/17 03:13:19;;;;;;;12.37;8.50;;;2.80;92.80;;;;;;5028196;28;20062;-73
2021/04/17 03:15:44;;;;;;;14.03;7.97;;;2.70;92.70;;;;;;5041625;28;20049;-73
2021/04/17 03:18:11;;;;;;;19.07;8.60;;;2.60;92.70;;;;;;5022554;28;20089;-73
2021/04/17 03:20:37;;;;;;;14.80;7.60;;;2.60;93.00;;;;;;5019907;28;20064;-73
2021/04/17 03:23:04;;;;;;;14.03;8.17;;;2.50;93.00;;;;;;5002777;28;20563;-73
2021/04/17 03:25:30;;;;;;;10.80;6.30;;;2.50;93.00;;;;;;5021805;28;20322;-72
2021/04/17 03:27:56;;;;;;;11.90;7.37;;;2.50;93.00;;;;;;5043835;28;20484;-72
2021/04/17 03:30:27;;;;;;;10.37;5.27;;;2.50;93.00;;;;;;5021078;28;20037;-73
2021/04/17 03:32:55;;;;;;;11.93;6.60;;;2.50;93.00;;;;;;5019657;28;20072;-73
2021/04/17 03:35:20;;;;;;;15.03;8.20;;;2.50;92.90;;;;;;5032879;28;20131;-73
2021/04/17 03:37:46;;;;;;;13.83;7.10;;;2.40;92.80;;;;;;5021444;28;20567;-73
2021/04/17 03:40:12;;;;;;;14.43;9.07;;;2.40;92.80;;;;;;5022548;28;20156;-73
2021/04/17 03:42:39;;;;;;;16.60;7.57;;;2.40;92.90;;;;;;5007897;28;20501;-72
2021/04/17 03:45:10;;;;;;;11.85;7.45;;;2.40;92.90;;;;;;5023228;28;20489;-72
2021/04/17 03:47:39;;;;;;;13.43;7.77;;;2.40;93.00;;;;;;5029628;28;20033;-72
2021/04/17 03:50:07;;;;;;;14.20;7.07;;;2.30;93.00;;;;;;5041900;28;20103;-72
2021/04/17 03:52:34;;;;;;;13.37;6.37;;;2.30;92.90;;;;;;5033266;28;20049;-72
2021/04/17 03:55:00;;;;;;;10.87;7.07;;;2.40;93.00;;;;;;5014079;28;20401;-72
2021/04/17 03:57:26;;;;;;;16.37;7.40;;;2.20;92.90;;;;;;5021626;28;20080;-72
2021/04/17 03:59:52;;;;;;;14.70;8.23;;;2.20;92.80;;;;;;5015967;28;20045;-72
2021/04/17 04:02:18;;;;;;;13.83;7.37;;;2.10;92.80;;;;;;5027525;28;20514;-72
2021/04/17 04:04:44;;;;;;;13.57;6.23;;;2.10;92.90;;;;;;5020496;28;20127;-72
2021/04/17 04:07:10;;;;;;;15.70;8.47;;;2.10;92.90;;;;;;5008359;28;20573;-71
2021/04/17 04:09:39;;;;;;;15.03;8.07;;;2.10;92.90;;;;;;5003516;28;20041;-71
2021/04/17 04:12:06;;;;;;;15.53;7.97;;;2.10;93.00;;;;;;5000113;28;20038;-72
2021/04/17 04:14:32;;;;;;;13.87;8.60;;;2.10;93.10;;;;;;5005195;28;20068;-72
2021/04/17 04:16:59;;;;;;;16.27;8.40;;;2.10;93.00;;;;;;5018662;28;20053;-72
2021/04/17 04:19:25;;;;;;;18.10;9.67;;;2.00;93.10;;;;;;5028387;28;20034;-71
2021/04/17 04:21:50;;;;;;;23.07;9.60;;;2.10;93.30;;;;;;5021611;28;20041;-71
2021/04/17 04:24:16;;;;;;;16.20;9.50;;;2.10;93.30;;;;;;5025714;28;20037;-71
2021/04/17 04:26:43;;;;;;;16.70;10.57;;;2.10;93.40;;;;;;5031742;28;20056;-71
2021/04/17 04:29:09;;;;;;;20.53;10.03;;;2.10;93.50;;;;;;5032492;28;20057;-71
2021/04/17 04:31:35;;;;;;;16.27;9.50;;;2.20;93.60;;;;;;5006506;28;20080;-71
2021/04/17 04:34:01;;;;;;;14.33;8.70;;;2.20;93.70;;;;;;5005035;28;20037;-71
2021/04/17 04:36:27;;;;;;;17.10;9.77;;;2.20;93.80;;;;;;5026481;28;20148;-72
2021/04/17 04:38:53;;;;;;;16.60;9.60;;;2.20;93.80;;;;;;5020376;28;20508;-72
2021/04/17 04:41:19;;;;;;;15.53;10.03;;;2.30;94.00;;;;;;5022230;28;20061;-72
2021/04/17 04:43:45;;;;;;;15.40;8.97;;;2.30;94.10;;;;;;5024025;28;20086;-71
2021/04/17 04:46:11;;;;;;;20.27;9.67;;;2.40;94.20;;;;;;5020466;28;20117;-72
2021/04/17 04:48:37;;;;;;;19.90;9.90;;;2.40;94.20;;;;;;5033214;28;20120;-71
2021/04/17 04:51:03;;;;;;;20.57;11.03;;;2.40;94.50;;;;;;5022891;28;20065;-71
2021/04/17 04:53:29;;;;;;;13.90;7.40;;;2.40;94.40;;;;;;5018415;28;20120;-72
2021/04/17 04:55:55;;;;;;;17.90;8.90;;;2.40;94.50;;;;;;5012683;28;20129;-71
2021/04/17 04:58:21;;;;;;;15.00;8.57;;;2.50;94.40;;;;;;5028102;28;20400;-71
2021/04/17 05:00:47;;;;;;;13.47;7.80;;;2.50;94.50;;;;;;5002588;28;20116;-72
2021/04/17 05:03:13;;;;;;;16.20;8.87;;;2.50;94.40;;;;;;5022920;28;20041;-72
2021/04/17 05:05:39;;;;;;;15.50;7.47;;;2.50;94.50;;;;;;5019219;28;20045;-72
2021/04/17 05:08:05;;;;;;;16.50;7.97;;;2.60;94.40;;;;;;5025846;28;20073;-72
2021/04/17 05:10:31;;;;;;;22.17;8.53;;;2.50;94.40;;;;;;5021414;28;20125;-72
2021/04/17 05:12:57;;;;;;;16.00;7.63;;;2.50;94.50;;;;;;4981704;28;20062;-72
2021/04/17 05:15:22;;;;;;;13.30;6.30;;;2.50;94.50;;;;;;5036136;28;20099;-72
2021/04/17 05:17:51;;;;;;;19.90;8.33;;;2.50;94.50;;;;;;5032244;28;20244;-73
2021/04/17 05:20:18;;;;;;;22.30;9.97;;;2.60;94.60;;;;;;5002338;28;20116;-72
2021/04/17 05:22:44;;;;;;;18.23;7.77;;;2.70;94.70;;;;;;4986486;28;20072;-72
2021/04/17 05:25:10;;;;;;;15.73;8.83;;;2.80;94.70;;;;;;5033558;28;20049;-72
2021/04/17 05:27:36;;;;;;;16.97;9.70;;;2.90;94.90;;;;;;5032515;28;20033;-73
2021/04/17 05:30:03;;;;;;;19.10;9.17;;;3.00;95.00;;;;;;5005154;28;20080;-72
2021/04/17 05:32:29;;;;;;;23.80;9.13;;;3.10;95.20;;;;;;5024996;28;20095;-72
2021/04/17 05:34:55;;;;;;;22.73;9.87;;;3.20;95.30;;;;;;5040175;28;20049;-72
2021/04/17 05:37:21;;;;;;;19.60;7.80;;;3.20;95.40;;;;;;5017797;28;20542;-72
2021/04/17 05:39:47;;;;;;;17.17;7.17;;;3.30;95.30;;;;;;5018695;28;20045;-72
2021/04/17 05:42:13;;;;;;;19.37;8.33;;;3.40;95.30;;;;;;5024522;28;20103;-72
2021/04/17 05:44:39;;;;;;;20.20;8.07;;;3.40;95.30;;;;;;5034408;28;20041;-72
2021/04/17 05:47:06;;;;;;;17.27;7.60;;;3.60;95.50;;;;;;5001909;28;20120;-72
2021/04/17 05:49:31;;;;;;;21.70;7.67;;;3.70;95.70;;;;;;5015869;28;20145;-72
2021/04/17 05:51:57;;;;;;;18.93;8.50;;;3.80;95.70;;;;;;5034443;28;20544;-72
2021/04/17 05:54:27;;;;;;;24.47;7.97;;;3.90;95.80;;;;;;5007834;28;20716;-72
2021/04/17 05:56:52;;;;;;;19.40;7.20;;;3.90;95.70;;;;;;5019085;28;20037;-72
2021/04/17 05:59:18;;;;;;;17.20;6.90;;;4.00;95.70;;;;;;5006421;28;20064;-72
2021/04/17 06:01:44;;;;;;;18.03;6.17;;;4.00;95.60;;;;;;4989807;28;20164;-72
2021/04/17 06:04:11;;;;;;;17.97;7.17;;;4.10;95.70;;;;;;5005234;28;20064;-73
2021/04/17 06:06:37;;;;;;;18.13;6.77;;;4.10;95.70;;;;;;5006113;28;20040;-72
2021/04/17 06:09:04;;;;;;;18.67;6.50;;;4.40;95.80;;;;;;5013701;28;20566;-72
2021/04/17 06:11:29;;;;;;;27.33;6.90;;;4.40;95.70;;;;;;5000009;28;20240;-73
2021/04/17 06:13:55;;;;;;;19.67;6.63;;;4.50;95.60;;;;;;5017926;28;20567;-73
2021/04/17 06:16:21;;;;;;;21.67;6.93;;;4.70;95.80;;;;;;5032206;28;20349;-72
2021/04/17 06:18:47;;;;;;;20.60;6.57;;;4.80;95.80;;;;;;5000394;28;20049;-72
2021/04/17 06:21:13;;;;;;;20.67;6.30;;;4.90;95.60;;;;;;5004391;28;20156;-72
2021/04/17 06:23:39;;;;;;;17.40;5.90;;;5.00;95.70;;;;;;4986806;28;20041;-73
2021/04/17 06:26:05;;;;;;;25.97;6.00;;;5.10;95.70;;;;;;5010459;28;20484;-72
2021/04/17 06:28:32;;;;;;;16.00;6.20;;;5.20;95.50;;;;;;5001204;28;20771;-73
2021/04/17 06:30:58;;;;;;;26.90;6.07;;;5.50;95.60;;;;;;5018831;28;20042;-73
2021/04/17 06:33:26;;;;;;;18.90;5.50;;;5.40;95.40;;;;;;5019307;28;20049;-73
2021/04/17 06:35:52;;;;;;;24.47;5.60;;;5.60;95.40;;;;;;5022106;28;20048;-72
2021/04/17 06:38:18;;;;;;;21.57;5.60;;;5.70;95.20;;;;;;5019203;28;20038;-72
2021/04/17 06:40:45;;;;;;;25.07;5.90;;;5.80;94.90;;;;;;5021175;28;20056;-72
2021/04/17 06:43:12;;;;;;;17.97;5.93;;;6.00;94.90;;;;;;5019389;28;20068;-72
2021/04/17 06:45:39;;;;;;;17.40;4.80;;;6.10;94.80;;;;;;5003269;28;20120;-72
2021/04/17 06:48:10;;;;;;;21.15;6.25;;;6.20;94.70;;;;;;5019707;28;20041;-73
2021/04/17 06:50:38;;;;;;;19.83;5.37;;;6.30;94.50;;;;;;5004304;28;20037;-72
2021/04/17 06:53:09;;;;;;;21.83;6.60;;;6.50;94.40;;;;;;4953286;28;20053;-72
2021/04/17 06:55:38;;;;;;;22.03;5.40;;;6.50;94.30;;;;;;4980875;28;20132;-72
2021/04/17 06:58:05;;;;;;;22.00;5.57;;;6.60;94.10;;;;;;5008006;28;20041;-72
2021/04/17 07:00:31;;;;;;;18.43;5.60;;;6.70;93.90;;;;;;5016603;28;20099;-72
2021/04/17 07:02:57;;;;;;;16.73;4.13;;;6.90;93.70;;;;;;5006269;28;20077;-72
2021/04/17 07:05:23;;;;;;;18.77;5.20;;;6.90;93.60;;;;;;5000318;28;20034;-71
2021/04/17 07:07:49;;;;;;;19.03;4.63;;;7.10;93.50;;;;;;4985797;28;20049;-71
2021/04/17 07:10:15;;;;;;;17.53;5.43;;;7.10;93.20;;;;;;5018352;28;20046;-71
2021/04/17 07:12:44;;;;;;;15.47;5.10;;;7.30;92.90;;;;;;5034724;28;20045;-71
2021/04/17 07:15:13;;;;;;;21.40;6.57;;;7.30;92.50;;;;;;5019910;28;20046;-72
2021/04/17 07:17:39;;;;;;;22.80;6.20;;;7.50;91.90;;;;;;5013569;28;20413;-74
2021/04/17 07:20:08;;;;;;;17.33;4.57;;;7.50;91.70;;;;;;4998915;28;20069;-71
2021/04/17 07:22:39;;;;;;;16.23;5.20;;;7.60;91.80;;;;;;5013530;28;20065;-71
2021/04/17 07:25:05;;;;;;;20.53;5.57;;;7.80;91.70;;;;;;4998811;28;20148;-72
2021/04/17 07:27:37;;;;;;;17.13;5.50;;;7.90;90.50;;;;;;4995250;28;20091;-72
2021/04/17 07:30:30;;;;;;;17.27;4.40;;;8.00;90.30;;;;;;5001328;28;20286;-74
2021/04/17 07:33:14;;;;;;;15.83;4.63;;;8.00;90.40;;;;;;4996125;28;20076;-74
2021/04/17 07:35:51;;;;;;;13.87;4.13;;;8.10;90.70;;;;;;4998927;28;20076;-72
2021/04/17 07:38:23;;;;;;;18.17;4.43;;;8.30;90.30;;;;;;5001758;28;20042;-72
2021/04/17 07:41:13;;;;;;;21.13;5.20;;;8.40;90.10;;;;;;5015988;28;20416;-72
2021/04/17 07:43:43;;;;;;;;;;;8.60;89.80;;;;;;5001159;28;20038;-72
2021/04/17 07:46:09;;;;;;;18.73;4.63;;;8.70;87.80;;;;;;4995465;28;19928;-73
2021/04/17 07:48:35;;;;;;;13.13;4.03;;;8.90;87.00;;;;;;5031035;28;20497;-71
2021/04/17 07:51:03;;;;;;;17.37;4.53;;;8.90;87.10;;;;;;5015549;28;20076;-72
2021/04/17 07:53:33;;;;;;;12.70;4.43;;;9.00;86.80;;;;;;5026163;28;20130;-72
2021/04/17 07:56:24;;;;;;;17.92;4.10;;;9.10;85.60;;;;;;5013707;28;21358;-73
2021/04/17 07:58:58;;;;;;;12.93;4.18;;;9.20;83.60;;;;;;5005929;28;20489;-73
2021/04/17 08:01:26;;;;;;;14.03;4.63;;;9.20;83.20;;;;;;4992780;28;20039;-73
2021/04/17 08:03:55;;;;;;;15.93;4.90;;;9.30;84.30;;;;;;5002205;28;20045;-72
2021/04/17 08:06:22;;;;;;;15.83;4.40;;;9.40;83.30;;;;;;5007095;28;20041;-73
2021/04/17 08:08:50;;;;;;;14.97;4.10;;;9.50;83.80;;;;;;5009576;28;20589;-73
2021/04/17 08:11:20;;;;;;;13.70;4.43;;;9.70;82.20;;;;;;5006673;28;20042;-73
2021/04/17 08:13:47;;;;;;;13.55;4.28;;;9.80;82.10;;;;;;5009021;28;20053;-74
2021/04/17 08:16:13;;;;;;;14.87;3.97;;;10.00;81.00;;;;;;5006470;28;20046;-74
2021/04/17 08:18:39;;;;;;;10.77;4.40;;;10.10;78.80;;;;;;4980417;28;20073;-74
2021/04/17 08:21:24;;;;;;;11.32;4.05;;;10.10;78.80;;;;;;5017800;28;20070;-75
2021/04/17 08:23:52;;;;;;;12.32;3.88;;;10.20;78.40;;;;;;5004673;28;20045;-73
2021/04/17 08:26:19;;;;;;;18.33;4.30;;;10.30;77.10;;;;;;5003434;28;20050;-73
2021/04/17 08:28:53;;;;;;;15.10;4.85;;;10.30;77.10;;;;;;5001786;28;20037;-74
2021/04/17 08:31:25;;;;;;;14.15;4.40;;;10.50;77.10;;;;;;5006711;28;20042;-73
2021/04/17 08:34:18;;;;;;;13.30;3.97;;;10.60;74.20;;;;;;5005375;28;20266;-73
2021/04/17 08:36:50;;;;;;;14.18;3.67;;;10.60;74.20;;;;;;5029907;28;20050;-73
2021/04/17 08:39:34;;;;;;;9.95;3.75;;;10.70;72.60;;;;;;5002034;28;20049;-74
2021/04/17 08:42:01;;;;;;;13.30;4.45;;;10.90;72.40;;;;;;4997861;28;20120;-74
2021/04/17 08:44:41;;;;;;;9.40;3.78;;;11.10;70.50;;;;;;4998876;28;20152;-74
2021/04/17 08:47:12;;;;;;;10.85;3.85;;;11.10;68.80;;;;;;5007124;28;20061;-75
2021/04/17 08:49:40;;;;;;;10.32;3.25;;;11.10;65.10;;;;;;4998061;28;20125;-75
2021/04/17 08:52:09;;;;;;;8.93;3.53;;;11.10;65.90;;;;;;5028407;28;20128;-74
2021/04/17 08:54:37;;;;;;;13.93;3.97;;;11.20;66.00;;;;;;5035407;28;20096;-74
2021/04/17 08:57:15;;;;;;;7.90;3.55;;;11.30;65.00;;;;;;5015203;28;20038;-74
2021/04/17 08:59:43;;;;;;;9.20;3.83;;;11.30;65.80;;;;;;5006883;28;20042;-76
2021/04/17 09:02:09;;;;;;;14.48;3.70;;;11.40;61.00;;;;;;5004122;28;20038;-74
2021/04/17 09:04:54;;;;;;;7.40;3.47;;;11.40;62.70;;;;;;5007254;28;20611;-74
2021/04/17 09:07:21;;;;;;;9.25;3.30;;;11.50;63.70;;;;;;5021485;28;20042;-74
2021/04/17 09:09:46;;;;;;;12.05;3.00;;;11.60;58.10;;;;;;4999671;28;20188;-75
2021/04/17 09:12:12;;;;;;;11.43;3.13;;;11.60;58.40;;;;;;5035119;28;20125;-74
2021/04/17 09:14:41;;;;;;;8.05;2.95;;;11.50;59.50;;;;;;5006398;28;20463;-74
2021/04/17 09:17:28;;;;;;;8.85;2.75;;;11.60;58.00;;;;;;4999989;28;20080;-74
2021/04/17 09:19:54;;;;;;;10.88;3.50;;;11.60;58.00;;;;;;5016954;28;20045;-74
2021/04/17 09:22:35;;;;;;;8.93;3.15;;;11.80;58.20;;;;;;5022405;28;20511;-74
2021/04/17 09:25:09;;;;;;;10.77;3.22;;;11.80;57.60;;;;;;5025423;28;20092;-73
2021/04/17 09:27:53;;;;;;;8.57;2.95;;;11.80;59.10;;;;;;5025201;28;20127;-74
2021/04/17 09:30:21;;;;;;;12.55;3.63;;;12.00;60.00;;;;;;5009510;28;20091;-73
2021/04/17 09:32:50;;;;;;;8.57;3.15;;;12.20;57.80;;;;;;4995239;28;20041;-73
2021/04/17 09:35:21;;;;;;;10.45;3.28;;;12.30;58.20;;;;;;5022185;28;20037;-73
2021/04/17 09:38:08;;;;;;;9.32;3.78;;;12.40;57.20;;;;;;5007241;28;21190;-73
2021/04/17 09:41:02;;;;;;;8.63;3.10;;;12.50;54.90;;;;;;5012965;28;20100;-73
2021/04/17 09:43:35;;;;;;;10.93;3.28;;;12.60;55.30;;;;;;5019987;28;20041;-74
2021/04/17 09:46:06;;;;;;;9.98;3.25;;;12.60;54.70;;;;;;4989740;28;20554;-74
2021/04/17 09:48:41;;;;;;;8.55;3.25;;;12.70;54.40;;;;;;5026081;28;20447;-75
2021/04/17 09:51:26;;;;;;;5.93;2.90;;;12.70;53.30;;;;;;5027972;28;20045;-74
2021/04/17 09:53:53;;;;;;;8.52;3.03;;;12.70;53.00;;;;;;5017818;28;20049;-75
2021/04/17 09:56:52;;;;;;;8.75;2.80;;;12.70;52.70;;;;;;4991360;28;20072;-74
2021/04/17 09:59:18;;;;;;;9.43;3.45;;;12.80;52.40;;;;;;4992537;28;20045;-74
2021/04/17 10:01:54;;;;;;;7.68;3.08;;;12.90;50.70;;;;;;5002240;28;20051;-73
2021/04/17 10:04:21;;;;;;;7.38;2.80;;;12.90;50.60;;;;;;5016970;28;20044;-73
2021/04/17 10:06:57;;;;;;;6.43;2.90;;;12.90;51.20;;;;;;5022880;28;20076;-72
2021/04/17 10:09:24;;;;;;;9.93;3.00;;;12.90;51.00;;;;;;5012495;28;20606;-75
2021/04/17 10:11:50;;;;;;;9.00;2.63;;;12.80;51.80;;;;;;5010302;28;20042;-75
2021/04/17 10:14:18;;;;;;;8.80;3.05;;;12.90;49.00;;;;;;5002059;28;20062;-74
2021/04/17 10:16:47;;;;;;;9.68;3.42;;;12.80;50.90;;;;;;5001668;28;20038;-75
2021/04/17 10:19:18;;;;;;;8.38;2.75;;;12.80;51.40;;;;;;5017946;28;20499;-74
2021/04/17 10:21:46;;;;;;;9.20;3.00;;;13.00;50.90;;;;;;5007612;28;20476;-74
2021/04/17 10:24:19;;;;;;;7.88;2.58;;;13.00;50.50;;;;;;5010209;28;20477;-73
2021/04/17 10:26:51;;;;;;;8.88;2.70;;;13.10;51.90;;;;;;5017617;28;20042;-74
2021/04/17 10:29:18;;;;;;;7.88;2.60;;;13.20;51.30;;;;;;5023534;28;20384;-74
2021/04/17 10:31:45;;;;;;;8.82;2.90;;;13.20;50.70;;;;;;5002658;28;20052;-74
2021/04/17 10:34:21;;;;;;;6.47;2.58;;;13.20;48.60;;;;;;4983428;28;20057;-74
2021/04/17 10:36:59;;;;;;;6.13;2.88;;;13.20;49.10;;;;;;5032128;28;20049;-74
2021/04/17 10:39:25;;;;;;;9.65;3.35;;;13.20;48.30;;;;;;5013775;28;20408;-74
2021/04/17 10:42:00;;;;;;;8.93;2.42;;;13.20;49.10;;;;;;5007975;28;20041;-75
2021/04/17 10:44:26;;;;;;;7.55;2.58;;;13.20;46.30;;;;;;5020418;28;20033;-73
2021/04/17 10:46:52;;;;;;;8.63;2.47;;;13.00;45.50;;;;;;5021702;28;20132;-77
2021/04/17 10:49:31;;;;;;;5.90;2.33;;;12.90;46.90;;;;;;5034405;28;20112;-75
2021/04/17 10:51:59;;;;;;;5.95;2.28;;;13.00;46.80;;;;;;4998087;28;20052;-75
2021/04/17 10:54:26;;;;;;;7.40;2.67;;;12.90;46.80;;;;;;4992536;28;20049;-76
2021/04/17 10:57:06;;;;;;;7.25;2.53;;;13.00;47.30;;;;;;5007989;28;20274;-75
2021/04/17 10:59:52;;;;;;;4.53;1.92;;;13.20;46.20;;;;;;5011363;28;20041;-76
2021/04/17 11:02:34;;;;;;;6.13;2.17;;;13.40;42.20;;;;;;5009176;28;20038;-75
2021/04/17 11:05:01;;;;;;;7.07;2.85;;;13.40;42.30;;;;;;5018767;28;20119;-75
2021/04/17 11:07:33;;;;;;;6.32;2.40;;;13.40;42.40;;;;;;5024277;28;20046;-75
2021/04/17 11:10:00;;;;;;;6.45;2.70;;;13.30;44.20;;;;;;5021928;28;20322;-74
2021/04/17 11:12:31;;;;;;;7.85;2.08;;;13.30;44.10;;;;;;5000187;28;20049;-74
2021/04/17 11:15:22;;;;;;;9.27;2.78;;;13.30;43.20;;;;;;4996283;28;20037;-74
2021/04/17 11:18:14;;;;;;;5.47;2.63;;;13.20;44.30;;;;;;4994792;28;20054;-74
2021/04/17 11:20:49;;;;;;;6.13;2.00;;;13.30;44.90;;;;;;5018950;28;21085;-75
2021/04/17 11:23:56;;;;;;;6.53;2.13;;;13.40;44.30;;;;;;5028039;28;20538;-75
2021/04/17 11:26:30;;;;;;;6.10;2.33;;;13.50;45.00;;;;;;4979715;28;20521;-75
2021/04/17 11:28:59;;;;;;;6.95;2.72;;;13.70;43.70;;;;;;5004487;28;20073;-75
2021/04/17 11:31:34;;;;;;;5.53;2.17;;;13.60;43.80;;;;;;5022058;28;20544;-75
2021/04/17 11:34:03;;;;;;;9.02;2.80;;;13.60;44.20;;;;;;5024147;28;20064;-75
2021/04/17 11:36:31;;;;;;;6.90;2.60;;;13.60;42.90;;;;;;5023153;28;20033;-75
2021/04/17 11:38:57;;;;;;;7.70;2.30;;;13.70;43.60;;;;;;5010084;28;20639;-75
2021/04/17 11:41:24;;;;;;;7.70;2.47;;;13.80;44.00;;;;;;5016462;28;20041;-75
2021/04/17 11:43:51;;;;;;;6.40;2.40;;;13.80;43.60;;;;;;5005098;28;20114;-75
2021/04/17 11:46:18;;;;;;;8.02;2.60;;;13.80;44.10;;;;;;5008828;28;20037;-78
2021/04/17 11:48:47;;;;;;;5.68;2.50;;;13.90;42.50;;;;;;5007444;28;20118;-76
2021/04/17 11:51:13;;;;;;;8.55;2.75;;;13.80;42.30;;;;;;5024035;28;20048;-75
2021/04/17 11:53:39;;;;;;;4.95;1.92;;;13.80;43.60;;;;;;5020031;28;20072;-76
2021/04/17 11:56:08;;;;;;;5.53;2.33;;;13.80;44.00;;;;;;5000625;28;20477;-75
2021/04/17 11:58:34;;;;;;;11.80;2.33;;;13.80;42.50;;;;;;5008943;28;20041;-75
2021/04/17 12:01:00;;;;;;;6.72;3.00;;;13.80;44.70;;;;;;5021957;28;20552;-76
2021/04/17 12:03:27;;;;;;;8.05;2.70;;;13.90;42.00;;;;;;5018274;28;20491;-76
2021/04/17 12:05:54;;;;;;;9.23;2.40;;;13.70;42.70;;;;;;5023005;28;20041;-76
2021/04/17 12:08:22;;;;;;;5.57;2.55;;;13.80;43.70;;;;;;5014139;28;20558;-77
2021/04/17 12:10:49;;;;;;;6.70;2.30;;;13.90;42.50;;;;;;4987817;28;20111;-76
2021/04/17 12:13:15;;;;;;;4.50;2.03;;;14.10;42.10;;;;;;5023410;28;20495;-76
2021/04/17 12:15:41;;;;;;;10.10;2.72;;;14.20;41.00;;;;;;5019538;28;20038;-77
2021/04/17 12:18:08;;;;;;;6.50;2.65;;;14.10;41.70;;;;;;5015938;28;20057;-77
2021/04/17 12:20:35;;;;;;;5.60;2.63;;;13.80;42.00;;;;;;5024197;28;20029;-78
2021/04/17 12:23:01;;;;;;;5.93;2.40;;;13.60;42.70;;;;;;5002483;28;20041;-76
2021/04/17 12:25:27;;;;;;;5.70;2.50;;;13.40;42.10;;;;;;5020681;28;20056;-76
2021/04/17 12:27:54;;;;;;;7.15;2.83;;;13.40;41.30;;;;;;5010809;28;20064;-78
2021/04/17 12:30:21;;;;;;;6.18;2.50;;;13.20;41.30;;;;;;4990078;28;20053;-77
2021/04/17 12:32:47;;;;;;;7.57;3.15;;;13.20;41.70;;;;;;5033150;28;20046;-76
2021/04/17 12:35:15;;;;;;;7.60;2.35;;;12.90;43.60;;;;;;5021569;28;20049;-75
2021/04/17 12:37:44;;;;;;;5.38;2.40;;;12.90;43.70;;;;;;5023225;28;20047;-74
2021/04/17 12:40:11;;;;;;;5.10;2.13;;;13.10;44.40;;;;;;5025837;28;20038;-75
2021/04/17 12:42:38;;;;;;;8.93;2.53;;;13.30;42.50;;;;;;5002880;28;20044;-76
2021/04/17 12:45:06;;;;;;;6.15;2.72;;;13.40;43.30;;;;;;5009608;28;20050;-75
2021/04/17 12:47:32;;;;;;;4.97;2.20;;;13.50;42.90;;;;;;4991097;28;20049;-75
2021/04/17 12:49:59;;;;;;;6.35;2.40;;;13.60;42.90;;;;;;5007902;28;20048;-76
2021/04/17 12:52:25;;;;;;;5.72;2.33;;;13.80;42.60;;;;;;5024722;28;20049;-75
2021/04/17 12:54:52;;;;;;;6.47;2.90;;;13.90;43.00;;;;;;5020721;28;20120;-75